createdAt,value
2023-05-14T00:00:31.568Z,80.94
2023-05-14T00:02:58.422Z,80.38
2023-05-14T00:05:25.297Z,80.66
2023-05-14T00:07:51.981Z,80.43
2023-05-14T00:10:20.696Z,81.24
2023-05-14T00:12:47.914Z,81.65
2023-05-14T00:15:14.621Z,81.13
2023-05-14T00:17:42.488Z,80.55
2023-05-14T00:20:12.036Z,79.91
2023-05-14T00:22:39.817Z,80.30
2023-05-14T00:25:07.892Z,81.27
2023-05-14T00:27:36.108Z,81.25
2023-05-14T00:30:04.250Z,81.18
2023-05-14T00:32:30.986Z,80.18
2023-05-14T00:34:57.940Z,80.76
2023-05-14T00:37:24.672Z,80.28
2023-05-14T00:39:51.659Z,80.19
2023-05-14T00:42:18.512Z,80.21
2023-05-14T00:44:45.159Z,80.03
2023-05-14T00:47:12.300Z,80.21
2023-05-14T00:49:40.963Z,79.44
2023-05-14T00:52:08.754Z,79.86
2023-05-14T00:54:36.542Z,79.72
2023-05-14T00:57:04.795Z,80.41
2023-05-14T00:59:31.802Z,80.59
2023-05-14T01:01:58.815Z,80.38
2023-05-14T01:04:25.710Z,80.05
2023-05-14T01:07:22.989Z,79.03
2023-05-14T01:10:28.187Z,79.46
2023-05-14T01:12:58.005Z,79.47
2023-05-14T01:15:30.723Z,79.34
2023-05-14T01:18:08.664Z,79.90
2023-05-14T01:20:36.468Z,80.20
2023-05-14T01:23:03.870Z,80.26
2023-05-14T01:25:31.476Z,79.67
2023-05-14T01:28:18.055Z,79.25
2023-05-14T01:31:08.274Z,79.30
2023-05-14T01:33:37.083Z,79.30
2023-05-14T01:36:04.759Z,79.11
2023-05-14T01:38:34.210Z,79.48
2023-05-14T01:41:02.185Z,80.54
2023-05-14T01:43:29.952Z,80.16
2023-05-14T01:45:56.834Z,80.48
2023-05-14T01:48:25.151Z,81.03
2023-05-14T01:50:52.485Z,80.38
2023-05-14T01:53:19.201Z,80.03
2023-05-14T01:55:45.953Z,79.94
2023-05-14T01:58:12.768Z,80.24
2023-05-14T02:00:39.429Z,80.23
2023-05-14T02:03:06.317Z,80.37
2023-05-14T02:05:33.115Z,80.54
2023-05-14T02:07:59.770Z,80.46
2023-05-14T02:10:26.421Z,80.95
2023-05-14T02:12:52.980Z,80.66
2023-05-14T02:15:19.506Z,80.32
2023-05-14T02:17:46.494Z,80.41
2023-05-14T02:20:13.276Z,80.97
2023-05-14T02:22:42.276Z,81.01
2023-05-14T02:25:09.578Z,80.64
2023-05-14T02:27:36.171Z,80.88
2023-05-14T02:30:03.579Z,80.52
2023-05-14T02:32:30.268Z,80.71
2023-05-14T02:34:56.876Z,80.83
2023-05-14T02:37:23.439Z,80.71
2023-05-14T02:39:50.658Z,80.92
2023-05-14T02:42:17.274Z,81.00
2023-05-14T02:44:43.953Z,80.87
2023-05-14T02:47:10.926Z,81.05
2023-05-14T02:49:37.483Z,80.94
2023-05-14T02:52:04.110Z,80.62
2023-05-14T02:54:30.716Z,80.06
2023-05-14T02:56:57.299Z,80.25
2023-05-14T02:59:24.870Z,80.51
2023-05-14T03:01:51.994Z,81.19
2023-05-14T03:04:19.040Z,81.47
2023-05-14T03:06:45.608Z,81.26
2023-05-14T03:09:12.283Z,81.60
2023-05-14T03:11:38.935Z,80.88
2023-05-14T03:14:05.470Z,80.69
2023-05-14T03:16:32.011Z,80.72
2023-05-14T03:18:58.738Z,80.30
2023-05-14T03:21:25.506Z,80.85
2023-05-14T03:23:52.848Z,80.42
2023-05-14T03:26:19.424Z,79.82
2023-05-14T03:28:45.946Z,79.68
2023-05-14T03:31:12.684Z,79.83
2023-05-14T03:33:39.517Z,80.57
2023-05-14T03:36:06.128Z,80.86
2023-05-14T03:38:32.639Z,81.05
2023-05-14T03:40:59.217Z,80.91
2023-05-14T03:43:25.983Z,81.39
2023-05-14T03:45:52.838Z,81.50
2023-05-14T03:48:20.172Z,81.43
2023-05-14T03:50:47.131Z,81.47
2023-05-14T03:53:13.769Z,81.22
2023-05-14T03:55:40.353Z,81.82
2023-05-14T03:58:13.933Z,81.94
2023-05-14T04:00:43.636Z,81.88
2023-05-14T04:03:11.321Z,81.03
2023-05-14T04:05:37.992Z,81.56
2023-05-14T04:08:04.702Z,81.95
2023-05-14T04:10:32.036Z,81.87
2023-05-14T04:12:59.575Z,81.37
2023-05-14T04:15:30.964Z,81.40
2023-05-14T04:17:57.612Z,81.64
2023-05-14T04:20:24.407Z,81.64
2023-05-14T04:22:51.080Z,80.93
2023-05-14T04:25:18.531Z,80.98
2023-05-14T04:27:45.131Z,81.48
2023-05-14T04:30:11.938Z,81.97
2023-05-14T04:32:39.032Z,82.21
2023-05-14T04:35:06.383Z,82.03
2023-05-14T04:37:33.117Z,81.42
2023-05-14T04:39:59.748Z,81.88
2023-05-14T04:42:26.452Z,81.85
2023-05-14T04:44:53.046Z,82.09
2023-05-14T04:47:21.076Z,82.09
2023-05-14T04:49:47.780Z,82.36
2023-05-14T04:52:14.314Z,81.63
2023-05-14T04:54:41.000Z,81.95
2023-05-14T04:57:07.622Z,81.52
2023-05-14T04:59:34.229Z,81.24
2023-05-14T05:02:00.944Z,80.87
2023-05-14T05:04:27.839Z,80.78
2023-05-14T05:06:54.380Z,81.29
2023-05-14T05:09:20.936Z,81.73
2023-05-14T05:11:47.493Z,81.38
2023-05-14T05:14:14.115Z,81.80
2023-05-14T05:16:40.659Z,81.35
2023-05-14T05:19:07.368Z,81.12
2023-05-14T05:21:34.262Z,81.83
2023-05-14T05:24:00.821Z,81.58
2023-05-14T05:26:27.988Z,81.36
2023-05-14T05:28:54.519Z,81.69
2023-05-14T05:31:21.085Z,81.32
2023-05-14T05:33:47.936Z,81.40
2023-05-14T05:36:14.517Z,80.85
2023-05-14T05:38:41.384Z,80.54
2023-05-14T05:41:08.136Z,80.80
2023-05-14T05:43:34.806Z,80.76
2023-05-14T05:46:01.632Z,80.69
2023-05-14T05:48:28.338Z,80.66
2023-05-14T05:50:55.122Z,80.45
2023-05-14T05:53:21.830Z,80.31
2023-05-14T05:55:48.404Z,80.69
2023-05-14T05:58:17.174Z,79.85
2023-05-14T06:00:43.990Z,79.89
2023-05-14T06:03:11.262Z,79.41
2023-05-14T06:05:37.918Z,77.25
2023-05-14T06:08:04.822Z,78.79
2023-05-14T06:10:31.630Z,77.74
2023-05-14T06:12:58.242Z,77.73
2023-05-14T06:15:25.034Z,77.87
2023-05-14T06:17:51.738Z,77.33
2023-05-14T06:20:22.054Z,76.30
2023-05-14T06:22:48.785Z,76.50
2023-05-14T06:25:15.616Z,76.45
2023-05-14T06:27:42.637Z,76.09
2023-05-14T06:30:11.037Z,76.47
2023-05-14T06:32:37.791Z,75.21
2023-05-14T06:35:04.602Z,75.39
2023-05-14T06:37:31.191Z,76.64
2023-05-14T06:39:58.097Z,75.89
2023-05-14T06:42:25.085Z,75.52
2023-05-14T06:44:51.628Z,75.32
2023-05-14T06:47:18.494Z,75.27
2023-05-14T06:49:45.403Z,74.85
2023-05-14T06:52:12.201Z,74.03
2023-05-14T06:54:39.353Z,75.45
2023-05-14T06:57:06.124Z,74.93
2023-05-14T06:59:33.315Z,74.68
2023-05-14T07:02:00.028Z,75.94
2023-05-14T07:04:29.828Z,76.22
2023-05-14T07:06:56.847Z,76.35
2023-05-14T07:09:23.517Z,75.64
2023-05-14T07:11:50.085Z,75.61
2023-05-14T07:14:16.826Z,76.07
2023-05-14T07:16:43.548Z,75.82
2023-05-14T07:19:10.430Z,75.96
2023-05-14T07:21:37.040Z,75.87
2023-05-14T07:24:03.939Z,75.57
2023-05-14T07:26:31.477Z,74.02
2023-05-14T07:28:58.204Z,74.31
2023-05-14T07:31:24.914Z,73.46
2023-05-14T07:33:52.113Z,73.06
2023-05-14T07:36:18.659Z,71.96
2023-05-14T07:38:45.333Z,72.36
2023-05-14T07:41:12.249Z,72.89
2023-05-14T07:43:40.454Z,72.98
2023-05-14T07:46:07.252Z,71.98
2023-05-14T07:48:34.297Z,71.81
2023-05-14T07:51:00.939Z,70.22
2023-05-14T07:53:27.517Z,70.69
2023-05-14T07:55:54.614Z,70.51
2023-05-14T07:58:21.229Z,71.69
2023-05-14T08:00:47.782Z,71.62
2023-05-14T08:03:14.949Z,71.54
2023-05-14T08:05:41.706Z,70.54
2023-05-14T08:08:08.266Z,70.94
2023-05-14T08:10:34.922Z,70.88
2023-05-14T08:13:01.585Z,70.94
2023-05-14T08:15:28.183Z,69.67
2023-05-14T08:17:58.850Z,70.31
2023-05-14T08:20:25.674Z,71.22
2023-05-14T08:22:52.766Z,71.33
2023-05-14T08:25:19.302Z,71.01
2023-05-14T08:27:45.845Z,68.89
2023-05-14T08:30:12.832Z,70.16
2023-05-14T08:32:39.572Z,70.00
2023-05-14T08:35:06.815Z,70.48
2023-05-14T08:37:33.336Z,69.66
2023-05-14T08:39:59.929Z,70.74
2023-05-14T08:42:28.605Z,70.76
2023-05-14T08:45:03.223Z,70.72
2023-05-14T08:47:30.927Z,71.69
2023-05-14T08:50:08.310Z,70.13
2023-05-14T08:52:35.555Z,71.18
2023-05-14T08:55:06.406Z,70.77
2023-05-14T08:57:34.262Z,70.10
2023-05-14T09:00:02.338Z,72.28
2023-05-14T09:02:31.458Z,71.33
2023-05-14T09:05:15.997Z,70.19
2023-05-14T09:07:43.462Z,68.69
2023-05-14T09:10:18.496Z,63.36
2023-05-14T09:12:49.774Z,65.56
2023-05-14T09:15:18.088Z,64.40
2023-05-14T09:17:47.967Z,63.66
2023-05-14T09:20:15.131Z,63.47
2023-05-14T09:22:42.098Z,63.56
2023-05-14T09:25:12.197Z,62.88
2023-05-14T09:27:38.993Z,64.09
2023-05-14T09:30:13.123Z,62.82
2023-05-14T09:32:46.176Z,60.96
2023-05-14T09:35:22.572Z,59.97
2023-05-14T09:37:54.436Z,58.83
2023-05-14T09:40:24.361Z,60.21
2023-05-14T09:42:51.352Z,60.38
2023-05-14T09:45:18.228Z,62.21
2023-05-14T09:47:45.280Z,63.67
2023-05-14T09:50:12.527Z,63.62
2023-05-14T09:52:39.901Z,63.50
2023-05-14T09:55:07.959Z,63.26
2023-05-14T09:57:35.375Z,61.28
2023-05-14T10:00:02.134Z,60.28
2023-05-14T10:02:40.954Z,59.52
2023-05-14T10:05:08.419Z,59.22
2023-05-14T10:07:48.078Z,58.99
2023-05-14T10:10:19.878Z,59.70
2023-05-14T10:12:57.379Z,61.86
2023-05-14T10:15:33.454Z,60.59
2023-05-14T10:18:05.821Z,61.20
2023-05-14T10:20:32.729Z,58.64
2023-05-14T10:22:59.629Z,59.88
2023-05-14T10:25:27.044Z,58.97
2023-05-14T10:27:54.582Z,58.77
2023-05-14T10:30:25.575Z,58.04
2023-05-14T10:33:12.791Z,58.25
2023-05-14T10:36:02.587Z,56.59
2023-05-14T10:38:34.479Z,58.37
2023-05-14T10:41:06.100Z,58.85
2023-05-14T10:43:38.448Z,57.94
2023-05-14T10:46:05.665Z,58.36
2023-05-14T10:48:33.732Z,59.33
2023-05-14T10:51:01.272Z,58.68
2023-05-14T10:53:34.052Z,58.50
2023-05-14T10:56:08.863Z,57.92
2023-05-14T10:58:37.578Z,57.66
2023-05-14T11:01:06.611Z,57.13
2023-05-14T11:03:39.807Z,54.79
2023-05-14T11:06:07.548Z,54.93
2023-05-14T11:08:34.313Z,53.78
2023-05-14T11:11:00.885Z,53.69
2023-05-14T11:13:28.001Z,53.30
2023-05-14T11:15:55.652Z,55.44
2023-05-14T11:18:38.462Z,55.71
2023-05-14T11:21:05.269Z,57.72
2023-05-14T11:23:31.986Z,61.54
2023-05-14T11:25:58.533Z,62.66
2023-05-14T11:28:26.690Z,62.07
2023-05-14T11:30:54.072Z,62.05
2023-05-14T11:33:21.100Z,64.19
2023-05-14T11:35:48.431Z,64.11
2023-05-14T11:38:20.214Z,59.88
2023-05-14T11:40:54.550Z,58.77
2023-05-14T11:43:23.724Z,53.25
2023-05-14T11:45:52.260Z,51.59
2023-05-14T11:48:19.912Z,53.95
2023-05-14T11:50:51.923Z,53.59
2023-05-14T11:53:26.664Z,52.52
2023-05-14T11:55:54.706Z,53.62
2023-05-14T11:58:21.981Z,56.19
2023-05-14T12:00:52.450Z,57.99
2023-05-14T12:03:30.396Z,60.61
2023-05-14T12:06:01.205Z,61.30
2023-05-14T12:08:31.413Z,60.27
2023-05-14T12:10:59.655Z,61.13
2023-05-14T12:13:27.893Z,62.53
2023-05-14T12:15:56.694Z,62.70
2023-05-14T12:18:27.371Z,61.64
2023-05-14T12:20:54.163Z,60.73
2023-05-14T12:23:31.487Z,60.32
2023-05-14T12:26:06.494Z,57.32
2023-05-14T12:28:36.051Z,56.90
2023-05-14T12:31:04.492Z,54.87
2023-05-14T12:33:31.096Z,55.06
2023-05-14T12:36:09.953Z,55.52
2023-05-14T12:38:41.309Z,56.83
2023-05-14T12:41:07.905Z,56.28
2023-05-14T12:43:34.489Z,59.56
2023-05-14T12:46:01.312Z,60.17
2023-05-14T12:48:28.087Z,59.17
2023-05-14T12:50:54.644Z,58.30
2023-05-14T12:53:21.194Z,57.05
2023-05-14T12:55:48.003Z,58.57
2023-05-14T12:58:14.577Z,57.58
2023-05-14T13:00:41.319Z,57.97
2023-05-14T13:03:08.148Z,59.67
2023-05-14T13:05:34.845Z,59.05
2023-05-14T13:08:05.136Z,59.00
2023-05-14T13:10:31.656Z,61.63
2023-05-14T13:12:58.250Z,63.60
2023-05-14T13:15:25.340Z,63.32
2023-05-14T13:17:53.218Z,64.19
2023-05-14T13:20:20.078Z,65.12
2023-05-14T13:22:46.671Z,65.34
2023-05-14T13:25:13.206Z,66.47
2023-05-14T13:27:39.744Z,67.63
2023-05-14T13:30:07.186Z,68.71
2023-05-14T13:32:33.829Z,67.93
2023-05-14T13:35:00.378Z,68.52
2023-05-14T13:37:27.056Z,69.57
2023-05-14T13:39:53.735Z,70.05
2023-05-14T13:42:22.063Z,69.21
2023-05-14T13:44:48.890Z,69.33
2023-05-14T13:47:24.464Z,70.80
2023-05-14T13:49:53.136Z,71.20
2023-05-14T13:52:19.887Z,72.46
2023-05-14T13:54:46.484Z,71.94
2023-05-14T13:57:13.102Z,73.87
2023-05-14T13:59:39.812Z,72.32
2023-05-14T14:02:08.607Z,73.41
2023-05-14T14:04:35.268Z,73.07
2023-05-14T14:07:01.916Z,73.20
2023-05-14T14:09:28.537Z,72.72
2023-05-14T14:11:55.116Z,71.58
2023-05-14T14:14:21.921Z,71.82
2023-05-14T14:16:48.579Z,71.30
2023-05-14T14:19:16.241Z,71.50
2023-05-14T14:21:44.499Z,72.07
2023-05-14T14:24:11.267Z,72.75
2023-05-14T14:26:37.908Z,73.66
2023-05-14T14:29:04.558Z,72.63
2023-05-14T14:31:31.162Z,70.49
2023-05-14T14:33:57.795Z,69.85
2023-05-14T14:36:24.498Z,69.33
2023-05-14T14:38:51.152Z,64.66
2023-05-14T14:41:17.789Z,63.54
2023-05-14T14:43:44.409Z,59.86
2023-05-14T14:46:11.221Z,60.19
2023-05-14T14:48:38.445Z,56.77
2023-05-14T14:51:06.722Z,53.83
2023-05-14T14:53:34.465Z,53.72
2023-05-14T14:56:01.741Z,54.84
2023-05-14T14:58:28.657Z,55.68
2023-05-14T15:00:56.702Z,55.10
2023-05-14T15:03:25.001Z,55.79
2023-05-14T15:05:53.272Z,55.74
2023-05-14T15:08:20.865Z,58.52
2023-05-14T15:10:47.475Z,58.92
2023-05-14T15:13:14.072Z,59.77
2023-05-14T15:15:40.654Z,59.42
2023-05-14T15:18:07.224Z,62.11
2023-05-14T15:20:33.886Z,61.85
2023-05-14T15:23:00.483Z,61.52
2023-05-14T15:25:27.233Z,61.07
2023-05-14T15:27:53.925Z,61.04
2023-05-14T15:30:20.621Z,61.83
2023-05-14T15:32:47.375Z,59.45
2023-05-14T15:35:14.348Z,61.11
2023-05-14T15:37:43.731Z,61.65
2023-05-14T15:40:11.442Z,62.09
2023-05-14T15:42:40.022Z,62.48
2023-05-14T15:45:06.951Z,63.37
2023-05-14T15:47:33.811Z,65.04
2023-05-14T15:50:00.758Z,64.12
2023-05-14T15:52:27.415Z,63.96
2023-05-14T15:54:55.906Z,64.41
2023-05-14T15:57:22.499Z,65.81
2023-05-14T15:59:49.300Z,66.37
2023-05-14T16:02:15.986Z,65.84
2023-05-14T16:04:42.667Z,64.37
2023-05-14T16:07:09.966Z,65.02
2023-05-14T16:09:36.877Z,66.06
2023-05-14T16:12:05.096Z,64.65
2023-05-14T16:14:33.809Z,65.38
2023-05-14T16:17:01.717Z,64.76
2023-05-14T16:19:28.618Z,64.83
2023-05-14T16:21:55.450Z,64.98
2023-05-14T16:24:22.349Z,64.92
2023-05-14T16:26:48.917Z,65.32
2023-05-14T16:29:16.523Z,64.79
2023-05-14T16:31:43.791Z,64.38
2023-05-14T16:34:16.142Z,64.94
2023-05-14T16:36:42.843Z,64.14
2023-05-14T16:39:09.891Z,64.75
2023-05-14T16:41:36.865Z,63.28
2023-05-14T16:44:11.196Z,62.91
2023-05-14T16:46:38.411Z,62.24
2023-05-14T16:49:05.272Z,62.70
2023-05-14T16:51:34.811Z,63.20
2023-05-14T16:54:01.696Z,64.71
2023-05-14T16:56:30.504Z,64.55
2023-05-14T16:58:57.037Z,64.51
2023-05-14T17:01:23.661Z,64.36
2023-05-14T17:03:50.718Z,64.44
2023-05-14T17:06:17.247Z,66.19
2023-05-14T17:08:43.993Z,65.65
2023-05-14T17:11:14.015Z,63.02
2023-05-14T17:13:43.540Z,63.63
2023-05-14T17:16:10.190Z,64.59
2023-05-14T17:18:36.792Z,65.03
2023-05-14T17:21:05.733Z,64.84
2023-05-14T17:23:35.050Z,64.58
2023-05-14T17:26:01.922Z,65.01
2023-05-14T17:28:29.985Z,65.59
2023-05-14T17:30:57.100Z,67.25
2023-05-14T17:33:25.737Z,67.43
2023-05-14T17:35:52.286Z,68.40
2023-05-14T17:38:18.870Z,68.00
2023-05-14T17:40:45.687Z,66.61
2023-05-14T17:43:12.317Z,67.32
2023-05-14T17:45:52.577Z,67.56
2023-05-14T17:48:21.296Z,68.00
2023-05-14T17:50:48.841Z,67.30
2023-05-14T17:53:15.620Z,68.33
2023-05-14T17:55:43.668Z,69.75
2023-05-14T17:58:15.259Z,70.37
2023-05-14T18:00:41.987Z,71.24
2023-05-14T18:03:11.793Z,71.74
2023-05-14T18:05:38.517Z,72.55
2023-05-14T18:08:09.471Z,72.86
2023-05-14T18:10:36.788Z,73.14
2023-05-14T18:13:03.727Z,73.09
2023-05-14T18:15:32.868Z,74.33
2023-05-14T18:17:59.742Z,73.54
2023-05-14T18:20:26.394Z,71.93
2023-05-14T18:22:53.285Z,71.76
2023-05-14T18:25:19.813Z,72.72
2023-05-14T18:27:46.961Z,72.71
2023-05-14T18:30:52.283Z,72.64
2023-05-14T18:34:57.192Z,73.24
2023-05-14T18:37:23.783Z,73.64
2023-05-14T18:39:56.388Z,73.85
2023-05-14T18:42:30.363Z,74.18
2023-05-14T18:45:06.849Z,73.99
2023-05-14T18:47:34.538Z,73.78
2023-05-14T18:50:02.187Z,73.78
2023-05-14T18:52:29.301Z,74.12
2023-05-14T18:54:55.970Z,75.21
2023-05-14T18:57:22.914Z,75.24
2023-05-14T18:59:49.440Z,76.07
2023-05-14T19:02:16.167Z,76.88
2023-05-14T19:04:51.795Z,75.99
2023-05-14T19:07:22.728Z,77.07
2023-05-14T19:09:49.333Z,75.88
2023-05-14T19:12:16.067Z,75.83
2023-05-14T19:14:42.987Z,75.80
2023-05-14T19:17:09.544Z,76.18
2023-05-14T19:19:36.470Z,77.19
2023-05-14T19:22:06.619Z,78.00
2023-05-14T19:24:33.295Z,76.57
2023-05-14T19:26:59.927Z,77.30
2023-05-14T19:29:26.982Z,77.32
2023-05-14T19:31:53.576Z,77.65
2023-05-14T19:34:20.526Z,78.76
2023-05-14T19:36:47.519Z,79.26
2023-05-14T19:39:14.097Z,77.34
2023-05-14T19:41:40.706Z,77.12
2023-05-14T19:44:10.427Z,77.24
2023-05-14T19:46:37.105Z,77.77
2023-05-14T19:49:03.847Z,77.65
2023-05-14T19:51:30.997Z,78.46
2023-05-14T19:53:57.625Z,78.70
2023-05-14T19:56:25.700Z,78.51
2023-05-14T19:58:53.905Z,78.95
2023-05-14T20:01:22.183Z,79.08
2023-05-14T20:03:48.757Z,79.35
2023-05-14T20:06:15.612Z,78.66
2023-05-14T20:08:42.305Z,77.61
2023-05-14T20:11:08.841Z,78.23
2023-05-14T20:13:36.712Z,78.41
2023-05-14T20:16:03.332Z,79.24
2023-05-14T20:18:29.979Z,78.58
2023-05-14T20:20:56.606Z,77.91
2023-05-14T20:23:23.131Z,79.18
2023-05-14T20:25:49.656Z,78.87
2023-05-14T20:28:16.198Z,78.64
2023-05-14T20:30:42.864Z,78.17
2023-05-14T20:33:09.669Z,78.12
2023-05-14T20:35:36.251Z,77.68
2023-05-14T20:38:06.123Z,77.69
2023-05-14T20:40:32.845Z,77.83
2023-05-14T20:42:59.536Z,78.12
2023-05-14T20:45:26.423Z,78.49
2023-05-14T20:47:53.381Z,80.15
2023-05-14T20:50:20.043Z,80.16
2023-05-14T20:52:46.848Z,80.38
2023-05-14T20:55:13.673Z,79.46
2023-05-14T20:57:40.712Z,78.69
2023-05-14T21:00:10.711Z,78.38
2023-05-14T21:02:37.617Z,79.38
2023-05-14T21:05:04.521Z,79.31
2023-05-14T21:07:31.716Z,79.00
2023-05-14T21:09:59.239Z,78.93
2023-05-14T21:12:26.044Z,79.16
2023-05-14T21:14:52.561Z,79.38
2023-05-14T21:17:19.153Z,80.32
2023-05-14T21:19:45.937Z,80.75
2023-05-14T21:22:12.796Z,79.74
2023-05-14T21:24:39.325Z,79.06
2023-05-14T21:27:06.110Z,78.84
2023-05-14T21:29:32.678Z,79.20
2023-05-14T21:31:59.294Z,79.25
2023-05-14T21:34:25.912Z,79.46
2023-05-14T21:36:52.784Z,79.51
2023-05-14T21:39:19.936Z,79.42
2023-05-14T21:41:46.442Z,80.16
2023-05-14T21:44:13.002Z,81.05
2023-05-14T21:46:39.650Z,81.28
2023-05-14T21:49:06.201Z,81.68
2023-05-14T21:51:33.067Z,81.38
2023-05-14T21:53:59.631Z,80.62
2023-05-14T21:56:26.304Z,80.11
2023-05-14T21:58:55.160Z,79.55
2023-05-14T22:01:21.790Z,78.95
2023-05-14T22:03:48.523Z,79.35
2023-05-14T22:06:15.098Z,79.56
2023-05-14T22:08:41.613Z,79.92
2023-05-14T22:11:08.182Z,80.00
2023-05-14T22:13:35.878Z,80.23
2023-05-14T22:16:12.105Z,81.01
2023-05-14T22:18:40.365Z,81.45
2023-05-14T22:21:06.945Z,81.45
2023-05-14T22:23:33.458Z,80.49
2023-05-14T22:26:00.017Z,80.21
2023-05-14T22:28:26.614Z,80.28
2023-05-14T22:30:53.209Z,80.45
2023-05-14T22:33:19.793Z,80.29
2023-05-14T22:35:46.342Z,81.30
2023-05-14T22:38:14.061Z,81.83
2023-05-14T22:40:40.739Z,81.17
2023-05-14T22:43:07.281Z,80.90
2023-05-14T22:45:33.842Z,80.65
2023-05-14T22:48:00.534Z,80.40
2023-05-14T22:50:27.100Z,80.34
2023-05-14T22:52:53.634Z,80.08
2023-05-14T22:55:20.182Z,81.02
2023-05-14T22:57:46.728Z,81.81
2023-05-14T23:00:13.731Z,81.96
2023-05-14T23:02:40.435Z,81.70
2023-05-14T23:05:08.272Z,80.93
2023-05-14T23:07:35.333Z,80.53
2023-05-14T23:10:01.995Z,80.21
2023-05-14T23:12:28.549Z,80.46
2023-05-14T23:14:55.087Z,80.91
2023-05-14T23:17:21.690Z,81.16
2023-05-14T23:19:48.270Z,81.81
2023-05-14T23:22:14.857Z,80.71
2023-05-14T23:24:41.375Z,81.65
2023-05-14T23:27:07.948Z,81.50
2023-05-14T23:29:34.509Z,80.79
2023-05-14T23:32:01.081Z,80.53
2023-05-14T23:34:27.864Z,80.84
2023-05-14T23:36:54.783Z,80.99
2023-05-14T23:39:21.705Z,81.05
2023-05-14T23:41:48.222Z,80.78
2023-05-14T23:44:15.195Z,81.03
2023-05-14T23:46:41.732Z,80.97
2023-05-14T23:49:08.336Z,80.79
2023-05-14T23:51:35.015Z,80.97
2023-05-14T23:54:01.555Z,80.73
2023-05-14T23:56:29.230Z,80.45
2023-05-14T23:58:56.228Z,80.01
